sensor_id;sensor_type;location;lat;lon;timestamp;noise_LAeq;noise_LA_min;noise_LA_max;noise_LA01;noise_LA95
38366;Laerm;943;51.568;6.998;2023-09-18T00:01:23;36.68;33.29;41.90;;
38366;Laerm;943;51.568;6.998;2023-09-18T00:03:51;37.24;33.09;41.76;;
38366;Laerm;943;51.568;6.998;2023-09-18T00:06:19;37.05;32.44;46.14;;
38366;Laerm;943;51.568;6.998;2023-09-18T00:08:51;38.85;32.94;45.88;;
38366;Laerm;943;51.568;6.998;2023-09-18T00:11:21;38.13;34.25;50.10;;
38366;Laerm;943;51.568;6.998;2023-09-18T00:13:49;38.98;34.26;44.59;;
38366;Laerm;943;51.568;6.998;2023-09-18T00:16:17;38.62;33.88;49.53;;
38366;Laerm;943;51.568;6.998;2023-09-18T00:18:45;38.53;34.58;44.13;;
38366;Laerm;943;51.568;6.998;2023-09-18T00:21:13;38.70;32.43;49.68;;
38366;Laerm;943;51.568;6.998;2023-09-18T00:23:42;37.55;33.77;43.38;;
38366;Laerm;943;51.568;6.998;2023-09-18T00:26:10;38.55;35.89;45.01;;
38366;Laerm;943;51.568;6.998;2023-09-18T00:28:41;39.21;34.69;48.88;;
38366;Laerm;943;51.568;6.998;2023-09-18T00:31:09;38.45;34.59;45.61;;
38366;Laerm;943;51.568;6.998;2023-09-18T00:33:37;37.44;33.25;47.48;;
38366;Laerm;943;51.568;6.998;2023-09-18T00:36:06;38.29;34.29;43.95;;
38366;Laerm;943;51.568;6.998;2023-09-18T00:38:34;38.17;34.87;43.04;;
38366;Laerm;943;51.568;6.998;2023-09-18T00:41:02;39.06;34.18;46.30;;
38366;Laerm;943;51.568;6.998;2023-09-18T00:43:30;39.16;34.54;46.89;;
38366;Laerm;943;51.568;6.998;2023-09-18T00:45:59;38.49;35.19;46.82;;
38366;Laerm;943;51.568;6.998;2023-09-18T00:48:28;40.68;34.38;51.82;;
38366;Laerm;943;51.568;6.998;2023-09-18T00:50:57;38.46;34.30;45.58;;
38366;Laerm;943;51.568;6.998;2023-09-18T00:53:27;38.95;35.22;47.00;;
38366;Laerm;943;51.568;6.998;2023-09-18T00:56:00;38.62;34.65;45.41;;
38366;Laerm;943;51.568;6.998;2023-09-18T00:58:29;38.40;35.25;44.15;;
38366;Laerm;943;51.568;6.998;2023-09-18T01:00:58;39.53;35.97;48.36;;
38366;Laerm;943;51.568;6.998;2023-09-18T01:03:26;39.31;36.16;46.10;;
38366;Laerm;943;51.568;6.998;2023-09-18T01:05:55;40.03;36.90;46.12;;
38366;Laerm;943;51.568;6.998;2023-09-18T01:08:25;39.54;34.86;49.91;;
38366;Laerm;943;51.568;6.998;2023-09-18T01:11:29;39.26;35.44;46.33;;
38366;Laerm;943;51.568;6.998;2023-09-18T01:16:59;40.20;36.87;45.89;;
38366;Laerm;943;51.568;6.998;2023-09-18T01:19:44;37.39;33.97;43.76;;
38366;Laerm;943;51.568;6.998;2023-09-18T01:22:19;39.15;35.89;43.89;;
38366;Laerm;943;51.568;6.998;2023-09-18T01:24:48;38.57;35.23;44.22;;
38366;Laerm;943;51.568;6.998;2023-09-18T01:27:18;40.45;36.86;45.71;;
38366;Laerm;943;51.568;6.998;2023-09-18T01:29:48;39.69;36.08;46.51;;
38366;Laerm;943;51.568;6.998;2023-09-18T01:32:18;40.81;37.05;45.71;;
38366;Laerm;943;51.568;6.998;2023-09-18T01:34:54;40.64;35.45;48.31;;
38366;Laerm;943;51.568;6.998;2023-09-18T01:37:30;39.42;35.37;45.21;;
38366;Laerm;943;51.568;6.998;2023-09-18T01:40:01;39.82;34.52;46.99;;
38366;Laerm;943;51.568;6.998;2023-09-18T01:42:35;39.32;33.55;49.13;;
38366;Laerm;943;51.568;6.998;2023-09-18T01:45:05;40.07;34.51;47.13;;
38366;Laerm;943;51.568;6.998;2023-09-18T01:47:34;40.45;37.27;44.81;;
38366;Laerm;943;51.568;6.998;2023-09-18T01:50:05;39.55;36.87;44.55;;
38366;Laerm;943;51.568;6.998;2023-09-18T01:52:34;41.27;36.49;49.74;;
38366;Laerm;943;51.568;6.998;2023-09-18T01:55:05;40.92;36.18;48.62;;
38366;Laerm;943;51.568;6.998;2023-09-18T01:57:35;40.48;36.91;46.50;;
38366;Laerm;943;51.568;6.998;2023-09-18T02:00:05;39.68;35.81;47.75;;
38366;Laerm;943;51.568;6.998;2023-09-18T02:02:40;40.66;36.63;47.73;;
38366;Laerm;943;51.568;6.998;2023-09-18T02:05:24;40.55;37.38;47.55;;
38366;Laerm;943;51.568;6.998;2023-09-18T02:07:53;41.09;38.17;48.37;;
38366;Laerm;943;51.568;6.998;2023-09-18T02:10:21;41.05;37.79;47.44;;
38366;Laerm;943;51.568;6.998;2023-09-18T02:12:49;39.80;36.82;45.26;;
38366;Laerm;943;51.568;6.998;2023-09-18T02:15:17;40.54;36.86;46.68;;
38366;Laerm;943;51.568;6.998;2023-09-18T02:17:45;41.20;38.34;48.94;;
38366;Laerm;943;51.568;6.998;2023-09-18T02:20:14;42.59;39.07;49.50;;
38366;Laerm;943;51.568;6.998;2023-09-18T02:22:42;41.33;37.75;47.47;;
38366;Laerm;943;51.568;6.998;2023-09-18T02:25:14;41.29;37.86;48.51;;
38366;Laerm;943;51.568;6.998;2023-09-18T02:27:42;40.83;38.61;44.45;;
38366;Laerm;943;51.568;6.998;2023-09-18T02:30:12;41.44;38.15;48.89;;
38366;Laerm;943;51.568;6.998;2023-09-18T02:32:41;42.03;38.74;47.94;;
38366;Laerm;943;51.568;6.998;2023-09-18T02:35:09;41.62;38.27;48.82;;
38366;Laerm;943;51.568;6.998;2023-09-18T02:37:38;40.82;37.29;46.19;;
38366;Laerm;943;51.568;6.998;2023-09-18T02:40:09;40.10;36.96;44.68;;
38366;Laerm;943;51.568;6.998;2023-09-18T02:42:37;41.94;38.34;51.13;;
38366;Laerm;943;51.568;6.998;2023-09-18T02:45:06;40.43;38.32;44.75;;
38366;Laerm;943;51.568;6.998;2023-09-18T02:47:37;40.57;38.30;43.96;;
38366;Laerm;943;51.568;6.998;2023-09-18T02:50:09;41.11;38.75;45.83;;
38366;Laerm;943;51.568;6.998;2023-09-18T02:52:39;41.65;39.29;46.91;;
38366;Laerm;943;51.568;6.998;2023-09-18T02:55:08;41.47;38.93;45.68;;
38366;Laerm;943;51.568;6.998;2023-09-18T02:57:37;40.68;38.11;44.57;;
38366;Laerm;943;51.568;6.998;2023-09-18T03:00:07;40.49;38.72;43.68;;
38366;Laerm;943;51.568;6.998;2023-09-18T03:02:35;41.68;39.75;46.22;;
38366;Laerm;943;51.568;6.998;2023-09-18T03:05:04;41.81;38.93;44.93;;
38366;Laerm;943;51.568;6.998;2023-09-18T03:07:33;41.79;39.41;44.38;;
38366;Laerm;943;51.568;6.998;2023-09-18T03:10:02;42.19;39.51;45.70;;
38366;Laerm;943;51.568;6.998;2023-09-18T03:12:30;42.38;39.43;50.00;;
38366;Laerm;943;51.568;6.998;2023-09-18T03:14:59;42.36;39.75;51.93;;
38366;Laerm;943;51.568;6.998;2023-09-18T03:17:28;41.50;38.70;50.60;;
38366;Laerm;943;51.568;6.998;2023-09-18T03:19:56;42.93;39.78;46.90;;
38366;Laerm;943;51.568;6.998;2023-09-18T03:22:26;42.77;40.59;45.91;;
38366;Laerm;943;51.568;6.998;2023-09-18T03:24:54;43.12;41.04;46.92;;
38366;Laerm;943;51.568;6.998;2023-09-18T03:27:23;45.14;41.93;48.17;;
38366;Laerm;943;51.568;6.998;2023-09-18T03:29:58;44.00;42.29;46.19;;
38366;Laerm;943;51.568;6.998;2023-09-18T03:32:26;44.78;42.68;47.40;;
38366;Laerm;943;51.568;6.998;2023-09-18T03:34:55;44.49;42.53;49.99;;
38366;Laerm;943;51.568;6.998;2023-09-18T03:37:23;45.10;42.48;52.06;;
38366;Laerm;943;51.568;6.998;2023-09-18T03:39:51;45.18;42.93;50.26;;
38366;Laerm;943;51.568;6.998;2023-09-18T03:42:20;45.27;42.99;51.73;;
38366;Laerm;943;51.568;6.998;2023-09-18T03:44:48;45.24;42.06;51.09;;
38366;Laerm;943;51.568;6.998;2023-09-18T03:47:16;45.04;42.36;48.40;;
38366;Laerm;943;51.568;6.998;2023-09-18T03:49:45;45.48;42.88;49.65;;
38366;Laerm;943;51.568;6.998;2023-09-18T03:52:13;46.48;43.09;53.63;;
38366;Laerm;943;51.568;6.998;2023-09-18T03:54:41;48.24;42.57;59.52;;
38366;Laerm;943;51.568;6.998;2023-09-18T03:57:09;44.80;42.71;55.77;;
38366;Laerm;943;51.568;6.998;2023-09-18T03:59:38;44.96;42.42;54.43;;
38366;Laerm;943;51.568;6.998;2023-09-18T04:02:06;44.59;41.77;56.57;;
38366;Laerm;943;51.568;6.998;2023-09-18T04:04:34;44.88;42.81;51.29;;
38366;Laerm;943;51.568;6.998;2023-09-18T04:07:07;45.74;42.26;52.11;;
38366;Laerm;943;51.568;6.998;2023-09-18T04:09:37;46.05;43.37;55.26;;
38366;Laerm;943;51.568;6.998;2023-09-18T04:12:06;45.52;42.98;58.36;;
38366;Laerm;943;51.568;6.998;2023-09-18T04:14:34;46.24;43.26;58.60;;
38366;Laerm;943;51.568;6.998;2023-09-18T04:17:04;44.98;43.09;51.50;;
38366;Laerm;943;51.568;6.998;2023-09-18T04:19:32;44.84;42.53;48.22;;
38366;Laerm;943;51.568;6.998;2023-09-18T04:22:01;44.73;42.63;54.55;;
38366;Laerm;943;51.568;6.998;2023-09-18T04:24:29;45.04;42.23;53.83;;
38366;Laerm;943;51.568;6.998;2023-09-18T04:26:59;45.89;43.05;57.85;;
38366;Laerm;943;51.568;6.998;2023-09-18T04:29:28;44.80;41.77;56.61;;
38366;Laerm;943;51.568;6.998;2023-09-18T04:31:58;44.68;41.29;54.16;;
38366;Laerm;943;51.568;6.998;2023-09-18T04:34:29;45.89;41.74;58.47;;
38366;Laerm;943;51.568;6.998;2023-09-18T04:36:58;44.97;42.30;56.48;;
38366;Laerm;943;51.568;6.998;2023-09-18T04:39:27;45.68;41.68;58.85;;
38366;Laerm;943;51.568;6.998;2023-09-18T04:41:58;44.09;41.22;58.01;;
38366;Laerm;943;51.568;6.998;2023-09-18T04:44:27;44.99;41.84;52.22;;
38366;Laerm;943;51.568;6.998;2023-09-18T04:46:57;44.87;41.89;53.33;;
38366;Laerm;943;51.568;6.998;2023-09-18T04:49:27;52.20;41.97;71.92;;
38366;Laerm;943;51.568;6.998;2023-09-18T04:51:57;44.33;42.26;47.72;;
38366;Laerm;943;51.568;6.998;2023-09-18T04:54:26;46.33;43.16;58.16;;
38366;Laerm;943;51.568;6.998;2023-09-18T04:56:56;45.25;43.03;53.93;;
38366;Laerm;943;51.568;6.998;2023-09-18T04:59:26;44.80;42.47;56.89;;
38366;Laerm;943;51.568;6.998;2023-09-18T05:01:57;44.92;42.44;62.10;;
38366;Laerm;943;51.568;6.998;2023-09-18T05:04:25;51.21;42.75;73.18;;
38366;Laerm;943;51.568;6.998;2023-09-18T05:06:53;47.65;42.95;61.65;;
38366;Laerm;943;51.568;6.998;2023-09-18T05:09:21;46.41;42.50;57.22;;
38366;Laerm;943;51.568;6.998;2023-09-18T05:11:50;46.35;43.15;54.53;;
38366;Laerm;943;51.568;6.998;2023-09-18T05:14:19;45.57;42.98;59.31;;
38366;Laerm;943;51.568;6.998;2023-09-18T05:16:47;47.13;42.61;60.67;;
38366;Laerm;943;51.568;6.998;2023-09-18T05:19:15;45.33;42.97;55.82;;
38366;Laerm;943;51.568;6.998;2023-09-18T05:21:43;46.64;42.13;55.20;;
38366;Laerm;943;51.568;6.998;2023-09-18T05:24:11;46.08;42.93;53.50;;
38366;Laerm;943;51.568;6.998;2023-09-18T05:26:39;47.50;43.47;55.64;;
38366;Laerm;943;51.568;6.998;2023-09-18T05:29:07;46.13;43.14;54.74;;
38366;Laerm;943;51.568;6.998;2023-09-18T05:31:37;47.62;42.79;59.02;;
38366;Laerm;943;51.568;6.998;2023-09-18T05:34:05;46.80;42.41;57.71;;
38366;Laerm;943;51.568;6.998;2023-09-18T05:36:33;46.34;42.34;59.84;;
38366;Laerm;943;51.568;6.998;2023-09-18T05:39:02;45.93;42.41;54.44;;
38366;Laerm;943;51.568;6.998;2023-09-18T05:41:31;47.59;43.08;59.66;;
38366;Laerm;943;51.568;6.998;2023-09-18T05:43:59;48.70;43.39;62.29;;
38366;Laerm;943;51.568;6.998;2023-09-18T05:46:31;46.02;42.81;56.26;;
38366;Laerm;943;51.568;6.998;2023-09-18T05:48:59;47.65;43.50;58.13;;
38366;Laerm;943;51.568;6.998;2023-09-18T05:51:30;47.65;43.02;61.89;;
38366;Laerm;943;51.568;6.998;2023-09-18T05:53:59;47.18;42.81;57.43;;
38366;Laerm;943;51.568;6.998;2023-09-18T05:56:27;49.36;44.32;57.36;;
38366;Laerm;943;51.568;6.998;2023-09-18T05:58:56;49.05;45.14;60.66;;
38366;Laerm;943;51.568;6.998;2023-09-18T06:01:24;47.61;44.69;53.55;;
38366;Laerm;943;51.568;6.998;2023-09-18T06:03:53;47.23;45.02;50.31;;
38366;Laerm;943;51.568;6.998;2023-09-18T06:06:22;49.65;46.27;57.65;;
38366;Laerm;943;51.568;6.998;2023-09-18T06:08:50;52.06;46.43;59.03;;
38366;Laerm;943;51.568;6.998;2023-09-18T06:11:19;50.41;46.32;55.99;;
38366;Laerm;943;51.568;6.998;2023-09-18T06:13:47;52.36;48.19;58.79;;
38366;Laerm;943;51.568;6.998;2023-09-18T06:16:15;65.25;48.04;76.76;;
38366;Laerm;943;51.568;6.998;2023-09-18T06:18:44;74.85;53.49;83.31;;
38366;Laerm;943;51.568;6.998;2023-09-18T06:21:12;71.12;51.04;80.32;;
38366;Laerm;943;51.568;6.998;2023-09-18T06:23:40;72.83;68.56;77.37;;
38366;Laerm;943;51.568;6.998;2023-09-18T06:26:09;70.50;60.87;78.90;;
38366;Laerm;943;51.568;6.998;2023-09-18T06:28:37;71.44;51.09;79.60;;
38366;Laerm;943;51.568;6.998;2023-09-18T06:31:06;57.37;48.13;63.18;;
38366;Laerm;943;51.568;6.998;2023-09-18T06:33:34;57.97;45.87;63.64;;
38366;Laerm;943;51.568;6.998;2023-09-18T06:36:02;55.29;48.25;62.53;;
38366;Laerm;943;51.568;6.998;2023-09-18T06:38:31;48.30;42.97;54.62;;
38366;Laerm;943;51.568;6.998;2023-09-18T06:40:59;46.58;42.76;59.62;;
38366;Laerm;943;51.568;6.998;2023-09-18T06:43:27;47.04;42.47;54.82;;
38366;Laerm;943;51.568;6.998;2023-09-18T06:45:56;48.51;44.96;59.48;;
38366;Laerm;943;51.568;6.998;2023-09-18T06:48:25;47.35;44.55;51.99;;
38366;Laerm;943;51.568;6.998;2023-09-18T06:50:53;55.08;44.98;64.87;;
38366;Laerm;943;51.568;6.998;2023-09-18T06:53:22;65.18;49.86;74.94;;
38366;Laerm;943;51.568;6.998;2023-09-18T06:55:50;51.43;46.97;58.92;;
38366;Laerm;943;51.568;6.998;2023-09-18T06:58:18;59.45;47.05;68.02;;
38366;Laerm;943;51.568;6.998;2023-09-18T07:00:52;59.42;51.18;70.19;;
38366;Laerm;943;51.568;6.998;2023-09-18T07:03:25;56.10;52.76;61.58;;
38366;Laerm;943;51.568;6.998;2023-09-18T07:05:57;54.07;45.33;60.29;;
38366;Laerm;943;51.568;6.998;2023-09-18T07:08:26;51.86;44.94;64.52;;
38366;Laerm;943;51.568;6.998;2023-09-18T07:10:54;51.76;47.30;56.25;;
38366;Laerm;943;51.568;6.998;2023-09-18T07:13:23;52.01;44.34;62.14;;
38366;Laerm;943;51.568;6.998;2023-09-18T07:15:53;58.11;49.25;65.16;;
38366;Laerm;943;51.568;6.998;2023-09-18T07:18:31;52.31;46.84;62.04;;
38366;Laerm;943;51.568;6.998;2023-09-18T07:21:02;49.67;45.92;58.87;;
38366;Laerm;943;51.568;6.998;2023-09-18T07:23:30;50.42;45.51;59.06;;
38366;Laerm;943;51.568;6.998;2023-09-18T07:25:59;52.46;44.00;71.89;;
38366;Laerm;943;51.568;6.998;2023-09-18T07:28:27;60.12;49.88;66.91;;
38366;Laerm;943;51.568;6.998;2023-09-18T07:30:56;59.89;54.98;64.27;;
38366;Laerm;943;51.568;6.998;2023-09-18T07:33:25;56.55;50.69;65.61;;
38366;Laerm;943;51.568;6.998;2023-09-18T07:35:55;61.70;43.74;72.50;;
38366;Laerm;943;51.568;6.998;2023-09-18T07:38:23;47.03;43.22;55.89;;
38366;Laerm;943;51.568;6.998;2023-09-18T07:40:53;46.05;43.17;49.79;;
38366;Laerm;943;51.568;6.998;2023-09-18T07:43:25;45.03;42.74;51.68;;
38366;Laerm;943;51.568;6.998;2023-09-18T07:45:54;45.71;42.64;51.89;;
38366;Laerm;943;51.568;6.998;2023-09-18T07:48:23;47.06;43.52;58.95;;
38366;Laerm;943;51.568;6.998;2023-09-18T07:50:51;46.38;43.12;53.91;;
38366;Laerm;943;51.568;6.998;2023-09-18T07:53:20;46.40;43.79;52.14;;
38366;Laerm;943;51.568;6.998;2023-09-18T07:55:57;47.10;43.05;54.28;;
38366;Laerm;943;51.568;6.998;2023-09-18T07:58:27;46.70;43.57;56.18;;
38366;Laerm;943;51.568;6.998;2023-09-18T08:00:57;45.65;42.99;51.09;;
38366;Laerm;943;51.568;6.998;2023-09-18T08:03:28;45.70;42.29;53.71;;
38366;Laerm;943;51.568;6.998;2023-09-18T08:05:58;58.73;43.61;70.45;;
38366;Laerm;943;51.568;6.998;2023-09-18T08:08:27;72.08;54.14;82.75;;
38366;Laerm;943;51.568;6.998;2023-09-18T08:10:57;69.88;49.35;81.63;;
38366;Laerm;943;51.568;6.998;2023-09-18T08:13:32;66.92;45.53;78.49;;
38366;Laerm;943;51.568;6.998;2023-09-18T08:16:07;54.94;47.37;67.91;;
38366;Laerm;943;51.568;6.998;2023-09-18T08:18:37;51.74;44.38;61.20;;
38366;Laerm;943;51.568;6.998;2023-09-18T08:21:09;48.67;43.87;56.55;;
38366;Laerm;943;51.568;6.998;2023-09-18T08:23:38;50.35;45.46;60.27;;
38366;Laerm;943;51.568;6.998;2023-09-18T08:26:07;49.47;45.14;55.88;;
38366;Laerm;943;51.568;6.998;2023-09-18T08:28:35;53.27;44.28;66.90;;
38366;Laerm;943;51.568;6.998;2023-09-18T08:31:06;55.90;45.40;68.65;;
38366;Laerm;943;51.568;6.998;2023-09-18T08:33:35;57.67;50.39;64.15;;
38366;Laerm;943;51.568;6.998;2023-09-18T08:36:04;54.54;44.89;60.69;;
38366;Laerm;943;51.568;6.998;2023-09-18T08:38:32;48.85;45.44;56.91;;
38366;Laerm;943;51.568;6.998;2023-09-18T08:41:01;49.36;45.53;60.49;;
38366;Laerm;943;51.568;6.998;2023-09-18T08:43:33;48.49;45.41;56.16;;
38366;Laerm;943;51.568;6.998;2023-09-18T08:46:02;51.88;45.70;69.66;;
38366;Laerm;943;51.568;6.998;2023-09-18T08:48:32;47.07;43.80;54.33;;
38366;Laerm;943;51.568;6.998;2023-09-18T08:51:06;52.18;45.39;63.64;;
38366;Laerm;943;51.568;6.998;2023-09-18T08:53:36;49.19;44.45;63.23;;
38366;Laerm;943;51.568;6.998;2023-09-18T08:56:07;52.36;44.72;65.58;;
38366;Laerm;943;51.568;6.998;2023-09-18T08:58:38;50.97;45.30;63.99;;
38366;Laerm;943;51.568;6.998;2023-09-18T09:01:11;56.28;44.81;74.55;;
38366;Laerm;943;51.568;6.998;2023-09-18T09:03:42;48.09;44.44;57.45;;
38366;Laerm;943;51.568;6.998;2023-09-18T09:06:16;49.16;45.06;58.91;;
38366;Laerm;943;51.568;6.998;2023-09-18T09:08:57;51.22;45.57;63.51;;
38366;Laerm;943;51.568;6.998;2023-09-18T09:11:40;49.05;45.86;54.59;;
38366;Laerm;943;51.568;6.998;2023-09-18T09:14:21;49.92;46.17;62.40;;
38366;Laerm;943;51.568;6.998;2023-09-18T09:17:09;50.35;45.32;62.02;;
38366;Laerm;943;51.568;6.998;2023-09-18T09:19:42;51.97;44.98;63.29;;
38366;Laerm;943;51.568;6.998;2023-09-18T09:22:21;51.59;42.95;69.53;;
38366;Laerm;943;51.568;6.998;2023-09-18T09:24:50;48.29;42.84;59.31;;
38366;Laerm;943;51.568;6.998;2023-09-18T09:27:18;49.40;43.88;63.28;;
38366;Laerm;943;51.568;6.998;2023-09-18T09:30:00;50.97;44.61;67.07;;
38366;Laerm;943;51.568;6.998;2023-09-18T09:32:32;50.13;44.20;63.95;;
38366;Laerm;943;51.568;6.998;2023-09-18T09:35:02;54.47;45.88;68.11;;
38366;Laerm;943;51.568;6.998;2023-09-18T09:37:35;51.84;45.30;64.41;;
38366;Laerm;943;51.568;6.998;2023-09-18T09:40:05;47.94;43.00;64.71;;
38366;Laerm;943;51.568;6.998;2023-09-18T09:42:41;46.74;43.14;59.40;;
38366;Laerm;943;51.568;6.998;2023-09-18T09:45:15;46.05;42.36;53.45;;
38366;Laerm;943;51.568;6.998;2023-09-18T09:47:44;51.37;45.06;66.31;;
38366;Laerm;943;51.568;6.998;2023-09-18T09:50:15;49.48;44.01;65.85;;
38366;Laerm;943;51.568;6.998;2023-09-18T09:52:50;47.48;44.01;56.65;;
38366;Laerm;943;51.568;6.998;2023-09-18T09:55:33;50.01;44.58;65.21;;
38366;Laerm;943;51.568;6.998;2023-09-18T09:58:07;49.31;44.06;69.81;;
38366;Laerm;943;51.568;6.998;2023-09-18T10:00:50;53.03;44.44;70.04;;
38366;Laerm;943;51.568;6.998;2023-09-18T10:03:21;54.90;45.86;73.18;;
38366;Laerm;943;51.568;6.998;2023-09-18T10:05:52;48.58;43.86;65.35;;
38366;Laerm;943;51.568;6.998;2023-09-18T10:08:28;52.24;43.58;65.28;;
38366;Laerm;943;51.568;6.998;2023-09-18T10:11:09;51.70;42.97;70.65;;
38366;Laerm;943;51.568;6.998;2023-09-18T10:13:53;49.48;43.81;59.93;;
38366;Laerm;943;51.568;6.998;2023-09-18T10:16:25;49.83;41.65;65.01;;
38366;Laerm;943;51.568;6.998;2023-09-18T10:19:39;50.69;43.03;67.85;;
38366;Laerm;943;51.568;6.998;2023-09-18T10:22:38;53.47;44.27;70.55;;
38366;Laerm;943;51.568;6.998;2023-09-18T10:25:20;46.68;42.66;56.41;;
38366;Laerm;943;51.568;6.998;2023-09-18T10:27:52;46.09;41.90;54.65;;
38366;Laerm;943;51.568;6.998;2023-09-18T10:30:34;51.76;43.67;65.23;;
38366;Laerm;943;51.568;6.998;2023-09-18T10:33:05;49.62;43.62;66.82;;
38366;Laerm;943;51.568;6.998;2023-09-18T10:35:37;46.67;43.03;54.44;;
38366;Laerm;943;51.568;6.998;2023-09-18T10:38:07;50.80;43.70;63.70;;
38366;Laerm;943;51.568;6.998;2023-09-18T10:40:41;50.92;44.91;61.32;;
38366;Laerm;943;51.568;6.998;2023-09-18T10:43:16;46.79;43.46;63.27;;
38366;Laerm;943;51.568;6.998;2023-09-18T10:45:46;47.83;43.30;62.26;;
38366;Laerm;943;51.568;6.998;2023-09-18T10:48:20;48.49;43.44;59.28;;
38366;Laerm;943;51.568;6.998;2023-09-18T10:50:51;48.77;43.08;64.19;;
38366;Laerm;943;51.568;6.998;2023-09-18T10:53:20;47.26;42.58;60.67;;
38366;Laerm;943;51.568;6.998;2023-09-18T10:55:49;49.02;42.45;65.53;;
38366;Laerm;943;51.568;6.998;2023-09-18T10:58:24;49.33;43.44;66.67;;
38366;Laerm;943;51.568;6.998;2023-09-18T11:00:56;51.40;45.08;65.08;;
38366;Laerm;943;51.568;6.998;2023-09-18T11:03:27;51.94;43.44;65.87;;
38366;Laerm;943;51.568;6.998;2023-09-18T11:06:23;50.87;43.91;67.13;;
38366;Laerm;943;51.568;6.998;2023-09-18T11:09:07;48.88;42.42;67.04;;
38366;Laerm;943;51.568;6.998;2023-09-18T11:11:36;48.15;43.27;63.13;;
38366;Laerm;943;51.568;6.998;2023-09-18T11:14:12;53.02;44.82;67.31;;
38366;Laerm;943;51.568;6.998;2023-09-18T11:16:40;47.30;43.85;58.52;;
38366;Laerm;943;51.568;6.998;2023-09-18T11:19:17;47.79;43.43;63.00;;
38366;Laerm;943;51.568;6.998;2023-09-18T11:21:47;48.83;43.76;61.68;;
38366;Laerm;943;51.568;6.998;2023-09-18T11:24:21;55.32;44.48;72.02;;
38366;Laerm;943;51.568;6.998;2023-09-18T11:26:52;50.86;44.73;63.87;;
38366;Laerm;943;51.568;6.998;2023-09-18T11:29:25;50.41;45.27;62.47;;
38366;Laerm;943;51.568;6.998;2023-09-18T11:31:57;49.77;45.02;66.79;;
38366;Laerm;943;51.568;6.998;2023-09-18T11:34:33;48.76;43.99;55.86;;
38366;Laerm;943;51.568;6.998;2023-09-18T11:37:22;51.09;45.07;65.69;;
38366;Laerm;943;51.568;6.998;2023-09-18T11:39:50;51.35;43.88;69.71;;
38366;Laerm;943;51.568;6.998;2023-09-18T11:42:21;52.96;45.19;72.70;;
38366;Laerm;943;51.568;6.998;2023-09-18T11:44:57;48.30;44.12;55.78;;
38366;Laerm;943;51.568;6.998;2023-09-18T11:47:27;52.53;45.52;66.34;;
38366;Laerm;943;51.568;6.998;2023-09-18T11:50:00;52.93;43.89;71.02;;
38366;Laerm;943;51.568;6.998;2023-09-18T11:52:32;49.65;44.91;65.54;;
38366;Laerm;943;51.568;6.998;2023-09-18T11:55:02;52.25;46.18;63.94;;
38366;Laerm;943;51.568;6.998;2023-09-18T11:57:36;52.28;44.33;68.11;;
38366;Laerm;943;51.568;6.998;2023-09-18T12:00:18;54.30;45.14;70.67;;
38366;Laerm;943;51.568;6.998;2023-09-18T12:02:50;57.05;47.98;71.64;;
38366;Laerm;943;51.568;6.998;2023-09-18T12:05:18;54.14;45.58;68.07;;
38366;Laerm;943;51.568;6.998;2023-09-18T12:07:48;47.39;43.55;64.29;;
38366;Laerm;943;51.568;6.998;2023-09-18T12:10:20;50.06;43.45;62.70;;
38366;Laerm;943;51.568;6.998;2023-09-18T12:12:50;53.60;45.16;70.44;;
38366;Laerm;943;51.568;6.998;2023-09-18T12:15:19;50.41;44.91;62.81;;
38366;Laerm;943;51.568;6.998;2023-09-18T12:17:56;51.94;46.18;60.97;;
38366;Laerm;943;51.568;6.998;2023-09-18T12:20:24;53.59;45.46;67.45;;
38366;Laerm;943;51.568;6.998;2023-09-18T12:22:53;47.81;43.71;57.39;;
38366;Laerm;943;51.568;6.998;2023-09-18T12:25:24;50.21;44.07;64.17;;
38366;Laerm;943;51.568;6.998;2023-09-18T12:27:56;55.05;45.70;74.14;;
38366;Laerm;943;51.568;6.998;2023-09-18T12:30:26;51.99;45.54;64.34;;
38366;Laerm;943;51.568;6.998;2023-09-18T12:32:58;49.53;44.49;62.66;;
38366;Laerm;943;51.568;6.998;2023-09-18T12:35:29;48.09;44.22;58.24;;
38366;Laerm;943;51.568;6.998;2023-09-18T12:38:00;49.69;45.28;62.19;;
38366;Laerm;943;51.568;6.998;2023-09-18T12:40:31;57.90;46.89;80.00;;
38366;Laerm;943;51.568;6.998;2023-09-18T12:43:04;48.83;45.03;58.96;;
38366;Laerm;943;51.568;6.998;2023-09-18T12:45:35;49.81;45.11;63.67;;
38366;Laerm;943;51.568;6.998;2023-09-18T12:48:09;51.04;44.96;64.20;;
38366;Laerm;943;51.568;6.998;2023-09-18T12:50:38;54.76;43.87;70.58;;
38366;Laerm;943;51.568;6.998;2023-09-18T12:53:14;51.01;45.04;62.07;;
38366;Laerm;943;51.568;6.998;2023-09-18T12:55:44;53.54;43.95;69.64;;
38366;Laerm;943;51.568;6.998;2023-09-18T12:58:13;49.91;45.36;63.18;;
38366;Laerm;943;51.568;6.998;2023-09-18T13:00:49;52.36;44.69;65.07;;
38366;Laerm;943;51.568;6.998;2023-09-18T13:03:18;47.39;43.93;57.03;;
38366;Laerm;943;51.568;6.998;2023-09-18T13:05:46;48.27;43.82;58.68;;
38366;Laerm;943;51.568;6.998;2023-09-18T13:08:23;48.00;42.97;59.67;;
38366;Laerm;943;51.568;6.998;2023-09-18T13:10:51;46.76;43.53;58.78;;
38366;Laerm;943;51.568;6.998;2023-09-18T13:13:23;48.54;43.66;59.51;;
38366;Laerm;943;51.568;6.998;2023-09-18T13:16:00;50.95;42.74;68.11;;
38366;Laerm;943;51.568;6.998;2023-09-18T13:18:29;53.40;45.37;69.63;;
38366;Laerm;943;51.568;6.998;2023-09-18T13:20:57;49.51;43.31;58.40;;
38366;Laerm;943;51.568;6.998;2023-09-18T13:23:32;52.21;42.71;70.10;;
38366;Laerm;943;51.568;6.998;2023-09-18T13:26:07;53.61;44.15;71.22;;
38366;Laerm;943;51.568;6.998;2023-09-18T13:28:39;51.62;45.23;66.69;;
38366;Laerm;943;51.568;6.998;2023-09-18T13:31:11;50.65;44.88;64.25;;
38366;Laerm;943;51.568;6.998;2023-09-18T13:33:39;49.38;45.57;59.67;;
38366;Laerm;943;51.568;6.998;2023-09-18T13:36:08;48.79;43.20;63.20;;
38366;Laerm;943;51.568;6.998;2023-09-18T13:38:36;49.22;43.06;65.42;;
38366;Laerm;943;51.568;6.998;2023-09-18T13:41:05;50.97;45.57;63.65;;
38366;Laerm;943;51.568;6.998;2023-09-18T13:43:33;55.06;44.52;70.81;;
38366;Laerm;943;51.568;6.998;2023-09-18T13:46:04;48.66;43.60;64.89;;
38366;Laerm;943;51.568;6.998;2023-09-18T13:48:33;54.32;45.34;66.16;;
38366;Laerm;943;51.568;6.998;2023-09-18T13:51:01;52.02;45.18;66.16;;
38366;Laerm;943;51.568;6.998;2023-09-18T13:53:31;56.01;46.41;69.79;;
38366;Laerm;943;51.568;6.998;2023-09-18T13:55:59;51.33;44.52;64.39;;
38366;Laerm;943;51.568;6.998;2023-09-18T13:58:28;50.47;44.29;69.67;;
38366;Laerm;943;51.568;6.998;2023-09-18T14:00:56;54.09;46.91;70.71;;
38366;Laerm;943;51.568;6.998;2023-09-18T14:03:25;51.77;45.41;62.73;;
38366;Laerm;943;51.568;6.998;2023-09-18T14:05:53;52.07;45.99;70.88;;
38366;Laerm;943;51.568;6.998;2023-09-18T14:08:21;51.10;45.32;62.52;;
38366;Laerm;943;51.568;6.998;2023-09-18T14:10:49;50.93;44.63;60.07;;
38366;Laerm;943;51.568;6.998;2023-09-18T14:13:18;54.52;45.85;69.82;;
38366;Laerm;943;51.568;6.998;2023-09-18T14:15:46;55.80;45.99;75.93;;
38366;Laerm;943;51.568;6.998;2023-09-18T14:18:19;53.66;45.45;68.63;;
38366;Laerm;943;51.568;6.998;2023-09-18T14:20:47;53.08;45.41;68.87;;
38366;Laerm;943;51.568;6.998;2023-09-18T14:23:15;51.61;45.29;63.63;;
38366;Laerm;943;51.568;6.998;2023-09-18T14:25:43;49.79;43.97;63.69;;
38366;Laerm;943;51.568;6.998;2023-09-18T14:28:11;54.03;45.57;69.27;;
38366;Laerm;943;51.568;6.998;2023-09-18T14:30:41;51.05;43.78;63.14;;
38366;Laerm;943;51.568;6.998;2023-09-18T14:33:09;50.37;45.48;60.59;;